sensor_id;sensor_type;location;lat;lon;timestamp;P1;durP1;ratioP1;P2;durP2;ratioP2
28028;SDS011;15345;59.364;18.016;2022-11-20T00:00:29;5.25;;;4.85;;
28028;SDS011;15345;59.364;18.016;2022-11-20T00:01:48;4.38;;;4.07;;
28028;SDS011;15345;59.364;18.016;2022-11-20T00:03:07;5.85;;;4.15;;
28028;SDS011;15345;59.364;18.016;2022-11-20T00:04:25;6.25;;;4.22;;
28028;SDS011;15345;59.364;18.016;2022-11-20T00:05:45;11.23;;;4.70;;
28028;SDS011;15345;59.364;18.016;2022-11-20T00:07:04;4.10;;;3.70;;
28028;SDS011;15345;59.364;18.016;2022-11-20T00:08:22;4.10;;;3.78;;
28028;SDS011;15345;59.364;18.016;2022-11-20T00:09:41;4.03;;;3.63;;
28028;SDS011;15345;59.364;18.016;2022-11-20T00:11:13;6.43;;;3.88;;
28028;SDS011;15345;59.364;18.016;2022-11-20T00:12:32;3.90;;;3.50;;
28028;SDS011;15345;59.364;18.016;2022-11-20T00:13:53;3.58;;;3.22;;
28028;SDS011;15345;59.364;18.016;2022-11-20T00:15:12;4.40;;;3.65;;
28028;SDS011;15345;59.364;18.016;2022-11-20T00:16:31;3.90;;;3.60;;
28028;SDS011;15345;59.364;18.016;2022-11-20T00:17:51;3.90;;;3.60;;
28028;SDS011;15345;59.364;18.016;2022-11-20T00:19:10;4.07;;;3.67;;
28028;SDS011;15345;59.364;18.016;2022-11-20T00:20:29;4.80;;;3.70;;
28028;SDS011;15345;59.364;18.016;2022-11-20T00:21:48;3.50;;;3.30;;
28028;SDS011;15345;59.364;18.016;2022-11-20T00:23:10;4.00;;;3.70;;
28028;SDS011;15345;59.364;18.016;2022-11-20T00:24:28;3.67;;;3.45;;
28028;SDS011;15345;59.364;18.016;2022-11-20T00:25:47;4.90;;;3.53;;
28028;SDS011;15345;59.364;18.016;2022-11-20T00:27:06;3.65;;;3.35;;
28028;SDS011;15345;59.364;18.016;2022-11-20T00:28:24;7.35;;;3.10;;
28028;SDS011;15345;59.364;18.016;2022-11-20T00:29:43;3.50;;;3.28;;
28028;SDS011;15345;59.364;18.016;2022-11-20T00:31:03;3.20;;;2.90;;
28028;SDS011;15345;59.364;18.016;2022-11-20T00:32:22;3.72;;;3.00;;
28028;SDS011;15345;59.364;18.016;2022-11-20T00:33:43;3.85;;;3.45;;
28028;SDS011;15345;59.364;18.016;2022-11-20T00:35:02;5.97;;;3.63;;
28028;SDS011;15345;59.364;18.016;2022-11-20T00:36:23;4.80;;;3.38;;
28028;SDS011;15345;59.364;18.016;2022-11-20T00:37:42;3.10;;;2.90;;
28028;SDS011;15345;59.364;18.016;2022-11-20T00:39:01;3.65;;;3.35;;
28028;SDS011;15345;59.364;18.016;2022-11-20T00:40:20;3.33;;;3.03;;
28028;SDS011;15345;59.364;18.016;2022-11-20T00:41:39;3.40;;;3.10;;
28028;SDS011;15345;59.364;18.016;2022-11-20T00:42:58;9.95;;;3.35;;
28028;SDS011;15345;59.364;18.016;2022-11-20T00:44:17;3.72;;;3.10;;
28028;SDS011;15345;59.364;18.016;2022-11-20T00:45:36;3.95;;;2.85;;
28028;SDS011;15345;59.364;18.016;2022-11-20T00:46:55;4.28;;;3.15;;
28028;SDS011;15345;59.364;18.016;2022-11-20T00:48:14;3.22;;;2.85;;
28028;SDS011;15345;59.364;18.016;2022-11-20T00:49:33;3.35;;;2.65;;
28028;SDS011;15345;59.364;18.016;2022-11-20T00:50:52;3.88;;;3.08;;
28028;SDS011;15345;59.364;18.016;2022-11-20T00:52:12;3.75;;;3.10;;
28028;SDS011;15345;59.364;18.016;2022-11-20T00:53:31;3.10;;;2.90;;
28028;SDS011;15345;59.364;18.016;2022-11-20T00:54:50;3.78;;;2.83;;
28028;SDS011;15345;59.364;18.016;2022-11-20T00:56:10;2.90;;;2.70;;
28028;SDS011;15345;59.364;18.016;2022-11-20T00:57:29;3.78;;;2.83;;
28028;SDS011;15345;59.364;18.016;2022-11-20T00:58:48;3.28;;;2.80;;
28028;SDS011;15345;59.364;18.016;2022-11-20T01:00:08;2.90;;;2.70;;
28028;SDS011;15345;59.364;18.016;2022-11-20T01:01:27;3.08;;;2.53;;
28028;SDS011;15345;59.364;18.016;2022-11-20T01:02:47;2.65;;;2.42;;
28028;SDS011;15345;59.364;18.016;2022-11-20T01:04:06;6.50;;;3.00;;
28028;SDS011;15345;59.364;18.016;2022-11-20T01:05:25;3.00;;;2.80;;
28028;SDS011;15345;59.364;18.016;2022-11-20T01:06:44;3.15;;;2.92;;
28028;SDS011;15345;59.364;18.016;2022-11-20T01:08:02;2.67;;;2.47;;
28028;SDS011;15345;59.364;18.016;2022-11-20T01:09:22;5.97;;;2.75;;
28028;SDS011;15345;59.364;18.016;2022-11-20T01:10:40;3.28;;;2.65;;
28028;SDS011;15345;59.364;18.016;2022-11-20T01:11:59;3.20;;;2.90;;
28028;SDS011;15345;59.364;18.016;2022-11-20T01:13:19;3.53;;;3.22;;
28028;SDS011;15345;59.364;18.016;2022-11-20T01:14:56;2.83;;;2.63;;
28028;SDS011;15345;59.364;18.016;2022-11-20T01:16:37;2.90;;;2.70;;
28028;SDS011;15345;59.364;18.016;2022-11-20T01:17:54;3.10;;;2.90;;
28028;SDS011;15345;59.364;18.016;2022-11-20T01:19:15;2.58;;;2.40;;
28028;SDS011;15345;59.364;18.016;2022-11-20T01:20:35;4.10;;;2.80;;
28028;SDS011;15345;59.364;18.016;2022-11-20T01:21:55;2.60;;;2.40;;
28028;SDS011;15345;59.364;18.016;2022-11-20T01:23:14;2.75;;;2.55;;
28028;SDS011;15345;59.364;18.016;2022-11-20T01:24:33;4.18;;;2.78;;
28028;SDS011;15345;59.364;18.016;2022-11-20T01:25:52;2.25;;;2.15;;
28028;SDS011;15345;59.364;18.016;2022-11-20T01:27:11;3.67;;;2.58;;
28028;SDS011;15345;59.364;18.016;2022-11-20T01:28:30;2.40;;;2.20;;
28028;SDS011;15345;59.364;18.016;2022-11-20T01:29:49;3.10;;;2.80;;
28028;SDS011;15345;59.364;18.016;2022-11-20T01:31:18;5.30;;;2.42;;
28028;SDS011;15345;59.364;18.016;2022-11-20T01:32:37;3.00;;;2.80;;
28028;SDS011;15345;59.364;18.016;2022-11-20T01:33:57;3.17;;;2.97;;
28028;SDS011;15345;59.364;18.016;2022-11-20T01:35:16;2.42;;;2.33;;
28028;SDS011;15345;59.364;18.016;2022-11-20T01:36:35;2.53;;;2.33;;
28028;SDS011;15345;59.364;18.016;2022-11-20T01:37:55;2.67;;;2.47;;
28028;SDS011;15345;59.364;18.016;2022-11-20T01:39:15;2.30;;;2.20;;
28028;SDS011;15345;59.364;18.016;2022-11-20T01:40:34;2.10;;;2.00;;
28028;SDS011;15345;59.364;18.016;2022-11-20T01:41:53;3.08;;;2.80;;
28028;SDS011;15345;59.364;18.016;2022-11-20T01:43:32;3.25;;;2.20;;
28028;SDS011;15345;59.364;18.016;2022-11-20T01:46:19;2.55;;;2.35;;
28028;SDS011;15345;59.364;18.016;2022-11-20T01:47:42;2.65;;;2.45;;
28028;SDS011;15345;59.364;18.016;2022-11-20T01:49:27;2.50;;;2.40;;
28028;SDS011;15345;59.364;18.016;2022-11-20T01:50:47;3.17;;;2.88;;
28028;SDS011;15345;59.364;18.016;2022-11-20T01:53:30;3.10;;;2.88;;
28028;SDS011;15345;59.364;18.016;2022-11-20T01:54:55;5.43;;;2.40;;
28028;SDS011;15345;59.364;18.016;2022-11-20T01:56:14;4.90;;;2.70;;
28028;SDS011;15345;59.364;18.016;2022-11-20T01:57:34;2.75;;;2.15;;
28028;SDS011;15345;59.364;18.016;2022-11-20T01:58:55;2.45;;;2.35;;
28028;SDS011;15345;59.364;18.016;2022-11-20T02:00:16;3.08;;;2.53;;
28028;SDS011;15345;59.364;18.016;2022-11-20T02:01:36;4.28;;;2.30;;
28028;SDS011;15345;59.364;18.016;2022-11-20T02:02:57;2.20;;;2.10;;
28028;SDS011;15345;59.364;18.016;2022-11-20T02:04:16;2.08;;;1.98;;
28028;SDS011;15345;59.364;18.016;2022-11-20T02:05:36;5.05;;;2.97;;
28028;SDS011;15345;59.364;18.016;2022-11-20T02:06:58;2.90;;;2.60;;
28028;SDS011;15345;59.364;18.016;2022-11-20T02:08:18;3.10;;;2.90;;
28028;SDS011;15345;59.364;18.016;2022-11-20T02:09:38;2.58;;;2.42;;
28028;SDS011;15345;59.364;18.016;2022-11-20T02:10:56;2.60;;;2.40;;
28028;SDS011;15345;59.364;18.016;2022-11-20T02:12:15;3.70;;;2.17;;
28028;SDS011;15345;59.364;18.016;2022-11-20T02:13:53;2.53;;;2.33;;
28028;SDS011;15345;59.364;18.016;2022-11-20T02:15:12;2.70;;;2.50;;
28028;SDS011;15345;59.364;18.016;2022-11-20T02:16:35;3.17;;;2.92;;
28028;SDS011;15345;59.364;18.016;2022-11-20T02:17:55;2.38;;;2.17;;
28028;SDS011;15345;59.364;18.016;2022-11-20T02:19:35;2.58;;;2.40;;
28028;SDS011;15345;59.364;18.016;2022-11-20T02:20:55;2.65;;;2.55;;
28028;SDS011;15345;59.364;18.016;2022-11-20T02:22:19;2.80;;;2.47;;
28028;SDS011;15345;59.364;18.016;2022-11-20T02:23:56;2.72;;;2.60;;
28028;SDS011;15345;59.364;18.016;2022-11-20T02:25:16;2.78;;;2.13;;
28028;SDS011;15345;59.364;18.016;2022-11-20T02:26:59;2.65;;;2.17;;
28028;SDS011;15345;59.364;18.016;2022-11-20T02:28:15;2.25;;;2.15;;
28028;SDS011;15345;59.364;18.016;2022-11-20T02:30:16;2.95;;;2.50;;
28028;SDS011;15345;59.364;18.016;2022-11-20T02:31:16;2.45;;;2.22;;
28028;SDS011;15345;59.364;18.016;2022-11-20T02:32:35;3.28;;;2.20;;
28028;SDS011;15345;59.364;18.016;2022-11-20T02:33:55;2.22;;;2.13;;
28028;SDS011;15345;59.364;18.016;2022-11-20T02:36:39;3.22;;;2.55;;
28028;SDS011;15345;59.364;18.016;2022-11-20T02:38:00;2.72;;;2.53;;
28028;SDS011;15345;59.364;18.016;2022-11-20T02:39:20;3.15;;;2.63;;
28028;SDS011;15345;59.364;18.016;2022-11-20T02:40:42;2.60;;;2.40;;
28028;SDS011;15345;59.364;18.016;2022-11-20T02:42:00;3.85;;;2.30;;
28028;SDS011;15345;59.364;18.016;2022-11-20T02:43:19;4.22;;;2.30;;
28028;SDS011;15345;59.364;18.016;2022-11-20T02:44:38;2.78;;;2.58;;
28028;SDS011;15345;59.364;18.016;2022-11-20T02:45:57;2.55;;;2.35;;
28028;SDS011;15345;59.364;18.016;2022-11-20T02:47:16;3.28;;;2.30;;
28028;SDS011;15345;59.364;18.016;2022-11-20T02:48:36;3.55;;;2.40;;
28028;SDS011;15345;59.364;18.016;2022-11-20T02:49:55;2.60;;;2.40;;
28028;SDS011;15345;59.364;18.016;2022-11-20T02:51:14;2.72;;;2.53;;
28028;SDS011;15345;59.364;18.016;2022-11-20T02:52:33;2.40;;;2.20;;
28028;SDS011;15345;59.364;18.016;2022-11-20T02:53:52;3.13;;;2.83;;
28028;SDS011;15345;59.364;18.016;2022-11-20T02:55:11;3.20;;;2.35;;
28028;SDS011;15345;59.364;18.016;2022-11-20T02:56:30;3.78;;;2.38;;
28028;SDS011;15345;59.364;18.016;2022-11-20T02:57:49;3.05;;;2.22;;
28028;SDS011;15345;59.364;18.016;2022-11-20T02:59:08;2.67;;;2.20;;
28028;SDS011;15345;59.364;18.016;2022-11-20T03:00:27;2.42;;;2.22;;
28028;SDS011;15345;59.364;18.016;2022-11-20T03:01:45;3.30;;;2.53;;
28028;SDS011;15345;59.364;18.016;2022-11-20T03:03:04;3.17;;;2.10;;
28028;SDS011;15345;59.364;18.016;2022-11-20T03:04:23;2.13;;;2.03;;
28028;SDS011;15345;59.364;18.016;2022-11-20T03:05:42;2.78;;;2.28;;
28028;SDS011;15345;59.364;18.016;2022-11-20T03:07:01;2.15;;;2.03;;
28028;SDS011;15345;59.364;18.016;2022-11-20T03:08:20;2.55;;;2.20;;
28028;SDS011;15345;59.364;18.016;2022-11-20T03:09:38;2.50;;;2.28;;
28028;SDS011;15345;59.364;18.016;2022-11-20T03:11:01;2.25;;;2.10;;
28028;SDS011;15345;59.364;18.016;2022-11-20T03:12:20;2.97;;;2.35;;
28028;SDS011;15345;59.364;18.016;2022-11-20T03:13:39;3.03;;;2.17;;
28028;SDS011;15345;59.364;18.016;2022-11-20T03:14:58;2.20;;;2.10;;
28028;SDS011;15345;59.364;18.016;2022-11-20T03:16:19;3.47;;;2.47;;
28028;SDS011;15345;59.364;18.016;2022-11-20T03:17:38;2.78;;;2.17;;
28028;SDS011;15345;59.364;18.016;2022-11-20T03:18:57;2.58;;;2.47;;
28028;SDS011;15345;59.364;18.016;2022-11-20T03:20:16;3.20;;;2.30;;
28028;SDS011;15345;59.364;18.016;2022-11-20T03:21:35;2.30;;;2.20;;
28028;SDS011;15345;59.364;18.016;2022-11-20T03:22:54;2.55;;;2.38;;
28028;SDS011;15345;59.364;18.016;2022-11-20T03:24:13;2.30;;;2.10;;
28028;SDS011;15345;59.364;18.016;2022-11-20T03:25:32;2.53;;;2.33;;
28028;SDS011;15345;59.364;18.016;2022-11-20T03:26:51;2.55;;;2.35;;
28028;SDS011;15345;59.364;18.016;2022-11-20T03:28:10;4.00;;;2.90;;
28028;SDS011;15345;59.364;18.016;2022-11-20T03:29:29;3.33;;;2.17;;
28028;SDS011;15345;59.364;18.016;2022-11-20T03:30:48;2.70;;;2.45;;
28028;SDS011;15345;59.364;18.016;2022-11-20T03:32:08;2.10;;;2.00;;
28028;SDS011;15345;59.364;18.016;2022-11-20T03:33:27;3.25;;;2.25;;
28028;SDS011;15345;59.364;18.016;2022-11-20T03:34:47;3.10;;;2.80;;
28028;SDS011;15345;59.364;18.016;2022-11-20T03:36:06;2.75;;;2.10;;
28028;SDS011;15345;59.364;18.016;2022-11-20T03:37:25;2.40;;;2.20;;
28028;SDS011;15345;59.364;18.016;2022-11-20T03:38:45;2.60;;;2.40;;
28028;SDS011;15345;59.364;18.016;2022-11-20T03:40:04;2.50;;;2.25;;
28028;SDS011;15345;59.364;18.016;2022-11-20T03:41:24;2.17;;;2.03;;
28028;SDS011;15345;59.364;18.016;2022-11-20T03:42:44;2.40;;;2.15;;
28028;SDS011;15345;59.364;18.016;2022-11-20T03:44:04;2.33;;;2.22;;
28028;SDS011;15345;59.364;18.016;2022-11-20T03:45:24;2.33;;;2.22;;
28028;SDS011;15345;59.364;18.016;2022-11-20T03:46:42;2.70;;;2.25;;
28028;SDS011;15345;59.364;18.016;2022-11-20T03:48:01;2.40;;;2.20;;
28028;SDS011;15345;59.364;18.016;2022-11-20T03:49:20;2.50;;;2.30;;
28028;SDS011;15345;59.364;18.016;2022-11-20T03:50:39;2.47;;;2.25;;
28028;SDS011;15345;59.364;18.016;2022-11-20T03:51:58;4.45;;;2.40;;
28028;SDS011;15345;59.364;18.016;2022-11-20T03:53:17;1.75;;;1.65;;
28028;SDS011;15345;59.364;18.016;2022-11-20T03:54:36;2.30;;;2.10;;
28028;SDS011;15345;59.364;18.016;2022-11-20T03:55:55;2.30;;;1.90;;
28028;SDS011;15345;59.364;18.016;2022-11-20T03:57:14;2.33;;;2.13;;
28028;SDS011;15345;59.364;18.016;2022-11-20T03:58:36;2.60;;;2.40;;
28028;SDS011;15345;59.364;18.016;2022-11-20T04:00:05;2.30;;;1.63;;
28028;SDS011;15345;59.364;18.016;2022-11-20T04:01:25;1.85;;;1.73;;
28028;SDS011;15345;59.364;18.016;2022-11-20T04:02:44;2.22;;;2.05;;
28028;SDS011;15345;59.364;18.016;2022-11-20T04:04:03;1.90;;;1.80;;
28028;SDS011;15345;59.364;18.016;2022-11-20T04:05:22;2.40;;;2.20;;
28028;SDS011;15345;59.364;18.016;2022-11-20T04:06:41;2.08;;;1.70;;
28028;SDS011;15345;59.364;18.016;2022-11-20T04:08:00;2.40;;;2.20;;
28028;SDS011;15345;59.364;18.016;2022-11-20T04:09:19;2.03;;;1.92;;
28028;SDS011;15345;59.364;18.016;2022-11-20T04:10:38;1.77;;;1.67;;
28028;SDS011;15345;59.364;18.016;2022-11-20T04:11:57;2.50;;;1.90;;
28028;SDS011;15345;59.364;18.016;2022-11-20T04:13:16;1.88;;;1.77;;
28028;SDS011;15345;59.364;18.016;2022-11-20T04:14:35;1.92;;;1.77;;
28028;SDS011;15345;59.364;18.016;2022-11-20T04:15:57;3.00;;;2.03;;
28028;SDS011;15345;59.364;18.016;2022-11-20T04:17:16;2.10;;;2.00;;
28028;SDS011;15345;59.364;18.016;2022-11-20T04:18:35;2.20;;;1.77;;
28028;SDS011;15345;59.364;18.016;2022-11-20T04:19:54;2.22;;;1.95;;
28028;SDS011;15345;59.364;18.016;2022-11-20T04:21:13;2.38;;;2.17;;
28028;SDS011;15345;59.364;18.016;2022-11-20T04:22:31;2.63;;;1.88;;
28028;SDS011;15345;59.364;18.016;2022-11-20T04:23:51;2.55;;;1.77;;
28028;SDS011;15345;59.364;18.016;2022-11-20T04:25:11;2.40;;;1.80;;
28028;SDS011;15345;59.364;18.016;2022-11-20T04:26:30;1.90;;;1.80;;
28028;SDS011;15345;59.364;18.016;2022-11-20T04:27:49;1.83;;;1.73;;
28028;SDS011;15345;59.364;18.016;2022-11-20T04:29:10;1.90;;;1.80;;
28028;SDS011;15345;59.364;18.016;2022-11-20T04:30:30;2.13;;;1.70;;
28028;SDS011;15345;59.364;18.016;2022-11-20T04:31:49;3.78;;;1.80;;
28028;SDS011;15345;59.364;18.016;2022-11-20T04:33:08;1.83;;;1.60;;
28028;SDS011;15345;59.364;18.016;2022-11-20T04:34:27;1.95;;;1.85;;
28028;SDS011;15345;59.364;18.016;2022-11-20T04:35:46;3.30;;;1.83;;
28028;SDS011;15345;59.364;18.016;2022-11-20T04:37:06;1.67;;;1.58;;
28028;SDS011;15345;59.364;18.016;2022-11-20T04:38:25;1.77;;;1.67;;
28028;SDS011;15345;59.364;18.016;2022-11-20T04:39:44;1.98;;;1.73;;
28028;SDS011;15345;59.364;18.016;2022-11-20T04:41:04;1.60;;;1.50;;
28028;SDS011;15345;59.364;18.016;2022-11-20T04:42:23;1.80;;;1.70;;
28028;SDS011;15345;59.364;18.016;2022-11-20T04:43:49;1.70;;;1.60;;
28028;SDS011;15345;59.364;18.016;2022-11-20T04:45:08;1.83;;;1.60;;
28028;SDS011;15345;59.364;18.016;2022-11-20T04:46:27;2.35;;;1.85;;
28028;SDS011;15345;59.364;18.016;2022-11-20T04:47:46;2.30;;;1.65;;
28028;SDS011;15345;59.364;18.016;2022-11-20T04:49:06;1.67;;;1.58;;
28028;SDS011;15345;59.364;18.016;2022-11-20T04:50:24;1.50;;;1.40;;
28028;SDS011;15345;59.364;18.016;2022-11-20T04:51:47;1.48;;;1.45;;
28028;SDS011;15345;59.364;18.016;2022-11-20T04:54:34;2.83;;;1.50;;
28028;SDS011;15345;59.364;18.016;2022-11-20T04:55:58;1.48;;;1.38;;
28028;SDS011;15345;59.364;18.016;2022-11-20T04:57:18;2.65;;;1.42;;
28028;SDS011;15345;59.364;18.016;2022-11-20T04:58:37;1.58;;;1.48;;
28028;SDS011;15345;59.364;18.016;2022-11-20T04:59:56;1.98;;;1.80;;
28028;SDS011;15345;59.364;18.016;2022-11-20T05:01:16;1.60;;;1.50;;
28028;SDS011;15345;59.364;18.016;2022-11-20T05:02:35;1.67;;;1.58;;
28028;SDS011;15345;59.364;18.016;2022-11-20T05:03:54;1.55;;;1.45;;
28028;SDS011;15345;59.364;18.016;2022-11-20T05:05:13;1.50;;;1.40;;
28028;SDS011;15345;59.364;18.016;2022-11-20T05:06:32;4.15;;;1.52;;
28028;SDS011;15345;59.364;18.016;2022-11-20T05:07:51;1.80;;;1.70;;
28028;SDS011;15345;59.364;18.016;2022-11-20T05:09:10;2.95;;;1.40;;
28028;SDS011;15345;59.364;18.016;2022-11-20T05:10:29;1.52;;;1.42;;
28028;SDS011;15345;59.364;18.016;2022-11-20T05:11:48;2.67;;;1.60;;
28028;SDS011;15345;59.364;18.016;2022-11-20T05:13:07;2.00;;;1.75;;
28028;SDS011;15345;59.364;18.016;2022-11-20T05:14:26;1.92;;;1.73;;
28028;SDS011;15345;59.364;18.016;2022-11-20T05:15:45;2.80;;;2.05;;
28028;SDS011;15345;59.364;18.016;2022-11-20T05:17:04;2.13;;;1.90;;
28028;SDS011;15345;59.364;18.016;2022-11-20T05:18:23;1.55;;;1.45;;
28028;SDS011;15345;59.364;18.016;2022-11-20T05:19:42;1.50;;;1.35;;
28028;SDS011;15345;59.364;18.016;2022-11-20T05:21:00;1.83;;;1.73;;
28028;SDS011;15345;59.364;18.016;2022-11-20T05:22:19;1.80;;;1.33;;
28028;SDS011;15345;59.364;18.016;2022-11-20T05:23:38;1.70;;;1.60;;
28028;SDS011;15345;59.364;18.016;2022-11-20T05:24:57;1.77;;;1.45;;
28028;SDS011;15345;59.364;18.016;2022-11-20T05:26:18;2.47;;;1.40;;
28028;SDS011;15345;59.364;18.016;2022-11-20T05:27:37;1.63;;;1.52;;
28028;SDS011;15345;59.364;18.016;2022-11-20T05:28:56;1.83;;;1.70;;
28028;SDS011;15345;59.364;18.016;2022-11-20T05:30:15;1.85;;;1.75;;
28028;SDS011;15345;59.364;18.016;2022-11-20T05:31:33;1.80;;;1.70;;
28028;SDS011;15345;59.364;18.016;2022-11-20T05:32:53;2.03;;;1.88;;
28028;SDS011;15345;59.364;18.016;2022-11-20T05:34:11;1.58;;;1.48;;
28028;SDS011;15345;59.364;18.016;2022-11-20T05:35:30;1.77;;;1.50;;
28028;SDS011;15345;59.364;18.016;2022-11-20T05:36:49;1.58;;;1.48;;
28028;SDS011;15345;59.364;18.016;2022-11-20T05:38:08;1.77;;;1.50;;
28028;SDS011;15345;59.364;18.016;2022-11-20T05:39:28;2.05;;;1.38;;
28028;SDS011;15345;59.364;18.016;2022-11-20T05:40:47;2.40;;;1.52;;
28028;SDS011;15345;59.364;18.016;2022-11-20T05:42:06;3.03;;;2.10;;
28028;SDS011;15345;59.364;18.016;2022-11-20T05:43:44;2.65;;;2.08;;
28028;SDS011;15345;59.364;18.016;2022-11-20T05:45:03;2.08;;;1.63;;
28028;SDS011;15345;59.364;18.016;2022-11-20T05:46:23;2.33;;;1.63;;
28028;SDS011;15345;59.364;18.016;2022-11-20T05:47:41;4.63;;;1.63;;
28028;SDS011;15345;59.364;18.016;2022-11-20T05:49:01;2.20;;;1.48;;
28028;SDS011;15345;59.364;18.016;2022-11-20T05:50:19;1.75;;;1.65;;
28028;SDS011;15345;59.364;18.016;2022-11-20T05:51:38;2.63;;;1.58;;
28028;SDS011;15345;59.364;18.016;2022-11-20T05:52:59;1.55;;;1.30;;
28028;SDS011;15345;59.364;18.016;2022-11-20T05:54:18;2.47;;;1.40;;
28028;SDS011;15345;59.364;18.016;2022-11-20T05:55:38;1.88;;;1.75;;
28028;SDS011;15345;59.364;18.016;2022-11-20T05:56:57;1.55;;;1.35;;
28028;SDS011;15345;59.364;18.016;2022-11-20T05:58:15;1.60;;;1.48;;
28028;SDS011;15345;59.364;18.016;2022-11-20T05:59:34;1.80;;;1.40;;
28028;SDS011;15345;59.364;18.016;2022-11-20T06:00:53;1.77;;;1.48;;
28028;SDS011;15345;59.364;18.016;2022-11-20T06:02:12;1.40;;;1.30;;
28028;SDS011;15345;59.364;18.016;2022-11-20T06:03:31;1.52;;;1.42;;
28028;SDS011;15345;59.364;18.016;2022-11-20T06:04:50;1.52;;;1.42;;
28028;SDS011;15345;59.364;18.016;2022-11-20T06:06:09;1.50;;;1.45;;
28028;SDS011;15345;59.364;18.016;2022-11-20T06:07:28;8.75;;;2.00;;
28028;SDS011;15345;59.364;18.016;2022-11-20T06:08:47;1.50;;;1.40;;
28028;SDS011;15345;59.364;18.016;2022-11-20T06:10:06;1.33;;;1.23;;
28028;SDS011;15345;59.364;18.016;2022-11-20T06:11:25;1.65;;;1.55;;
28028;SDS011;15345;59.364;18.016;2022-11-20T06:12:44;1.40;;;1.23;;
28028;SDS011;15345;59.364;18.016;2022-11-20T06:14:03;1.58;;;1.48;;
28028;SDS011;15345;59.364;18.016;2022-11-20T06:15:22;2.03;;;1.42;;
28028;SDS011;15345;59.364;18.016;2022-11-20T06:16:41;1.67;;;1.58;;
28028;SDS011;15345;59.364;18.016;2022-11-20T06:18:00;1.50;;;1.40;;
28028;SDS011;15345;59.364;18.016;2022-11-20T06:19:19;1.55;;;1.30;;
28028;SDS011;15345;59.364;18.016;2022-11-20T06:20:38;1.63;;;1.52;;
28028;SDS011;15345;59.364;18.016;2022-11-20T06:21:57;1.50;;;1.40;;
28028;SDS011;15345;59.364;18.016;2022-11-20T06:23:16;2.00;;;1.42;;
28028;SDS011;15345;59.364;18.016;2022-11-20T06:24:34;2.28;;;1.20;;
28028;SDS011;15345;59.364;18.016;2022-11-20T06:25:53;2.45;;;1.60;;
28028;SDS011;15345;59.364;18.016;2022-11-20T06:27:12;1.67;;;1.33;;
28028;SDS011;15345;59.364;18.016;2022-11-20T06:28:31;1.65;;;1.55;;
28028;SDS011;15345;59.364;18.016;2022-11-20T06:29:50;2.78;;;1.35;;
28028;SDS011;15345;59.364;18.016;2022-11-20T06:31:13;2.33;;;1.52;;
28028;SDS011;15345;59.364;18.016;2022-11-20T06:32:32;1.48;;;1.38;;
28028;SDS011;15345;59.364;18.016;2022-11-20T06:33:51;1.70;;;1.60;;
28028;SDS011;15345;59.364;18.016;2022-11-20T06:35:11;1.77;;;1.67;;
28028;SDS011;15345;59.364;18.016;2022-11-20T06:36:30;1.88;;;1.65;;
28028;SDS011;15345;59.364;18.016;2022-11-20T06:37:49;5.13;;;1.73;;
28028;SDS011;15345;59.364;18.016;2022-11-20T06:39:08;1.83;;;1.73;;
28028;SDS011;15345;59.364;18.016;2022-11-20T06:40:27;1.98;;;1.73;;
28028;SDS011;15345;59.364;18.016;2022-11-20T06:41:46;1.83;;;1.73;;
28028;SDS011;15345;59.364;18.016;2022-11-20T06:43:05;1.65;;;1.55;;
28028;SDS011;15345;59.364;18.016;2022-11-20T06:44:24;4.82;;;1.50;;
28028;SDS011;15345;59.364;18.016;2022-11-20T06:45:43;3.95;;;1.67;;
28028;SDS011;15345;59.364;18.016;2022-11-20T06:47:02;3.45;;;2.13;;
28028;SDS011;15345;59.364;18.016;2022-11-20T06:48:21;1.77;;;1.67;;
28028;SDS011;15345;59.364;18.016;2022-11-20T06:49:41;1.70;;;1.60;;
28028;SDS011;15345;59.364;18.016;2022-11-20T06:50:59;1.60;;;1.50;;
28028;SDS011;15345;59.364;18.016;2022-11-20T06:52:21;2.30;;;2.10;;
28028;SDS011;15345;59.364;18.016;2022-11-20T06:53:40;3.33;;;1.75;;
28028;SDS011;15345;59.364;18.016;2022-11-20T06:54:59;1.70;;;1.60;;
28028;SDS011;15345;59.364;18.016;2022-11-20T06:56:18;1.92;;;1.80;;
28028;SDS011;15345;59.364;18.016;2022-11-20T06:57:36;2.20;;;2.00;;
28028;SDS011;15345;59.364;18.016;2022-11-20T06:58:55;2.42;;;2.00;;
28028;SDS011;15345;59.364;18.016;2022-11-20T07:00:14;2.92;;;1.67;;
28028;SDS011;15345;59.364;18.016;2022-11-20T07:01:34;2.00;;;1.48;;
28028;SDS011;15345;59.364;18.016;2022-11-20T07:02:53;2.97;;;1.95;;
28028;SDS011;15345;59.364;18.016;2022-11-20T07:04:12;1.73;;;1.60;;
28028;SDS011;15345;59.364;18.016;2022-11-20T07:05:32;1.73;;;1.60;;
28028;SDS011;15345;59.364;18.016;2022-11-20T07:06:50;2.03;;;1.70;;
28028;SDS011;15345;59.364;18.016;2022-11-20T07:08:10;1.95;;;1.63;;
28028;SDS011;15345;59.364;18.016;2022-11-20T07:09:28;6.00;;;2.35;;
28028;SDS011;15345;59.364;18.016;2022-11-20T07:10:47;5.45;;;1.95;;
28028;SDS011;15345;59.364;18.016;2022-11-20T07:12:06;2.00;;;1.67;;
28028;SDS011;15345;59.364;18.016;2022-11-20T07:13:26;1.70;;;1.60;;
28028;SDS011;15345;59.364;18.016;2022-11-20T07:14:45;1.75;;;1.65;;
28028;SDS011;15345;59.364;18.016;2022-11-20T07:16:05;3.75;;;1.98;;
28028;SDS011;15345;59.364;18.016;2022-11-20T07:17:25;2.00;;;1.90;;
28028;SDS011;15345;59.364;18.016;2022-11-20T07:18:44;2.38;;;1.70;;
28028;SDS011;15345;59.364;18.016;2022-11-20T07:20:03;1.60;;;1.50;;
28028;SDS011;15345;59.364;18.016;2022-11-20T07:21:22;4.82;;;1.98;;
28028;SDS011;15345;59.364;18.016;2022-11-20T07:22:41;2.35;;;1.85;;
28028;SDS011;15345;59.364;18.016;2022-11-20T07:24:00;2.40;;;1.85;;
28028;SDS011;15345;59.364;18.016;2022-11-20T07:25:18;3.00;;;2.10;;
28028;SDS011;15345;59.364;18.016;2022-11-20T07:26:37;3.97;;;1.85;;
28028;SDS011;15345;59.364;18.016;2022-11-20T07:27:59;3.08;;;1.50;;
28028;SDS011;15345;59.364;18.016;2022-11-20T07:29:18;1.83;;;1.60;;
28028;SDS011;15345;59.364;18.016;2022-11-20T07:30:37;1.80;;;1.70;;
28028;SDS011;15345;59.364;18.016;2022-11-20T07:31:57;3.80;;;2.08;;
28028;SDS011;15345;59.364;18.016;2022-11-20T07:33:16;2.17;;;1.92;;
28028;SDS011;15345;59.364;18.016;2022-11-20T07:34:35;1.90;;;1.67;;
28028;SDS011;15345;59.364;18.016;2022-11-20T07:35:53;2.08;;;1.92;;
28028;SDS011;15345;59.364;18.016;2022-11-20T07:37:13;3.58;;;2.00;;
28028;SDS011;15345;59.364;18.016;2022-11-20T07:38:32;2.45;;;1.80;;
28028;SDS011;15345;59.364;18.016;2022-11-20T07:39:50;2.67;;;1.73;;
28028;SDS011;15345;59.364;18.016;2022-11-20T07:41:09;4.55;;;1.90;;
28028;SDS011;15345;59.364;18.016;2022-11-20T07:42:28;1.98;;;1.80;;
28028;SDS011;15345;59.364;18.016;2022-11-20T07:43:46;2.08;;;1.70;;
28028;SDS011;15345;59.364;18.016;2022-11-20T07:45:05;2.67;;;1.67;;
28028;SDS011;15345;59.364;18.016;2022-11-20T07:46:24;3.88;;;2.08;;
28028;SDS011;15345;59.364;18.016;2022-11-20T07:47:43;2.33;;;1.67;;
28028;SDS011;15345;59.364;18.016;2022-11-20T07:49:02;3.72;;;1.80;;
28028;SDS011;15345;59.364;18.016;2022-11-20T07:50:22;2.10;;;1.73;;
28028;SDS011;15345;59.364;18.016;2022-11-20T07:51:41;3.95;;;2.03;;
28028;SDS011;15345;59.364;18.016;2022-11-20T07:53:04;2.42;;;2.03;;
28028;SDS011;15345;59.364;18.016;2022-11-20T07:54:23;1.88;;;1.58;;
28028;SDS011;15345;59.364;18.016;2022-11-20T07:55:42;1.95;;;1.75;;
28028;SDS011;15345;59.364;18.016;2022-11-20T07:57:01;2.55;;;1.67;;
28028;SDS011;15345;59.364;18.016;2022-11-20T07:58:20;1.92;;;1.83;;
28028;SDS011;15345;59.364;18.016;2022-11-20T07:59:39;5.63;;;1.90;;